createdAt,value
2018-09-03T00:01:27.881Z,13.50
2018-09-03T00:03:55.049Z,13.40
2018-09-03T00:06:22.530Z,13.40
2018-09-03T00:08:49.705Z,13.40
2018-09-03T00:11:16.885Z,13.30
2018-09-03T00:13:44.349Z,13.30
2018-09-03T00:16:11.504Z,13.30
2018-09-03T00:18:38.751Z,13.30
2018-09-03T00:21:06.421Z,13.30
2018-09-03T00:23:33.593Z,13.30
2018-09-03T00:26:00.766Z,13.40
2018-09-03T00:28:28.317Z,13.40
2018-09-03T00:31:01.081Z,13.40
2018-09-03T00:33:34.259Z,13.40
2018-09-03T00:36:07.258Z,13.40
2018-09-03T00:38:40.673Z,13.40
2018-09-03T00:41:13.489Z,13.50
2018-09-03T00:44:45.750Z,13.50
2018-09-03T00:47:13.602Z,13.60
2018-09-03T00:49:40.902Z,13.60
2018-09-03T00:52:08.082Z,13.60
2018-09-03T00:54:36.457Z,13.60
2018-09-03T00:57:03.649Z,13.70
2018-09-03T00:59:30.809Z,13.60
2018-09-03T01:01:58.445Z,13.70
2018-09-03T01:04:25.606Z,13.60
2018-09-03T01:06:52.774Z,13.70
2018-09-03T01:09:20.429Z,13.60
2018-09-03T01:11:47.614Z,13.60
2018-09-03T01:14:14.770Z,13.60
2018-09-03T01:16:42.481Z,13.60
2018-09-03T01:19:09.644Z,13.60
2018-09-03T01:21:36.809Z,13.60
2018-09-03T01:24:04.276Z,13.60
2018-09-03T01:26:31.449Z,13.60
2018-09-03T01:28:58.594Z,13.60
2018-09-03T01:31:26.090Z,13.60
2018-09-03T01:33:53.956Z,13.60
2018-09-03T01:36:21.316Z,13.60
2018-09-03T01:38:49.268Z,13.60
2018-09-03T01:41:17.488Z,13.60
2018-09-03T01:43:45.013Z,13.60
2018-09-03T01:46:12.394Z,13.70
2018-09-03T01:48:39.830Z,13.60
2018-09-03T01:51:06.934Z,13.60
2018-09-03T01:53:34.207Z,13.60
2018-09-03T01:56:01.398Z,13.60
2018-09-03T01:58:28.514Z,13.60
2018-09-03T02:00:55.993Z,13.50
2018-09-03T02:03:23.543Z,13.50
2018-09-03T02:05:50.662Z,13.60
2018-09-03T02:08:18.074Z,13.60
2018-09-03T02:10:45.226Z,13.60
2018-09-03T02:13:12.354Z,13.60
2018-09-03T02:15:39.966Z,13.60
2018-09-03T02:18:07.103Z,13.60
2018-09-03T02:20:34.303Z,13.50
2018-09-03T02:23:02.182Z,13.40
2018-09-03T02:25:29.323Z,13.40
2018-09-03T02:27:56.465Z,13.50
2018-09-03T02:30:24.034Z,13.50
2018-09-03T02:32:51.177Z,13.50
2018-09-03T02:35:18.421Z,13.50
2018-09-03T02:37:45.722Z,13.50
2018-09-03T02:40:12.831Z,13.50
2018-09-03T02:42:40.203Z,13.50
2018-09-03T02:45:08.592Z,13.50
2018-09-03T02:47:35.706Z,13.50
2018-09-03T02:50:02.850Z,13.50
2018-09-03T02:52:30.046Z,13.50
2018-09-03T02:54:57.154Z,13.40
2018-09-03T02:57:24.377Z,13.40
2018-09-03T02:59:51.690Z,13.40
2018-09-03T03:02:18.831Z,13.40
2018-09-03T03:04:46.170Z,13.40
2018-09-03T03:07:13.299Z,13.40
2018-09-03T03:09:40.426Z,13.50
2018-09-03T03:12:07.962Z,13.50
2018-09-03T03:14:35.066Z,13.50
2018-09-03T03:17:02.175Z,13.50
2018-09-03T03:19:29.746Z,13.50
2018-09-03T03:21:56.853Z,13.50
2018-09-03T03:24:23.974Z,13.50
2018-09-03T03:26:51.135Z,13.50
2018-09-03T03:29:18.252Z,13.60
2018-09-03T03:31:45.358Z,13.60
2018-09-03T03:34:12.647Z,13.60
2018-09-03T03:36:39.786Z,13.60
2018-09-03T03:39:07.516Z,13.60
2018-09-03T03:41:35.186Z,13.50
2018-09-03T03:44:02.432Z,13.50
2018-09-03T03:46:29.546Z,13.50
2018-09-03T03:48:56.783Z,13.60
2018-09-03T03:51:23.901Z,13.60
2018-09-03T03:53:51.049Z,13.60
2018-09-03T03:56:18.174Z,13.60
2018-09-03T03:58:45.323Z,13.70
2018-09-03T04:01:12.929Z,13.70
2018-09-03T04:03:40.049Z,13.60
2018-09-03T04:06:07.369Z,13.70
2018-09-03T04:08:34.502Z,13.70
2018-09-03T04:11:01.615Z,13.60
2018-09-03T04:13:29.042Z,13.60
2018-09-03T04:15:56.778Z,13.60
2018-09-03T04:18:24.123Z,13.60
2018-09-03T04:20:51.242Z,13.60
2018-09-03T04:23:18.757Z,13.60
2018-09-03T04:25:45.690Z,13.60
2018-09-03T04:28:12.833Z,13.60
2018-09-03T04:30:40.098Z,13.50
2018-09-03T04:33:07.242Z,13.50
2018-09-03T04:35:34.378Z,13.50
2018-09-03T04:38:01.781Z,13.60
2018-09-03T04:40:28.893Z,13.50
2018-09-03T04:42:56.046Z,13.50
2018-09-03T04:45:23.346Z,13.50
2018-09-03T04:47:50.467Z,13.50
2018-09-03T04:50:17.619Z,13.50
2018-09-03T04:52:44.751Z,13.60
2018-09-03T04:55:11.965Z,13.60
2018-09-03T04:57:39.131Z,13.60
2018-09-03T05:00:06.494Z,13.70
2018-09-03T05:02:33.620Z,13.60
2018-09-03T05:05:01.040Z,13.70
2018-09-03T05:07:28.162Z,13.70
2018-09-03T05:09:55.277Z,13.70
2018-09-03T05:12:22.731Z,13.70
2018-09-03T05:14:49.943Z,13.80
2018-09-03T05:17:16.987Z,13.80
2018-09-03T05:19:44.203Z,13.80
2018-09-03T05:22:11.333Z,13.90
2018-09-03T05:24:38.598Z,13.90
2018-09-03T05:27:05.809Z,13.90
2018-09-03T05:29:32.959Z,13.90
2018-09-03T05:32:00.074Z,13.90
2018-09-03T05:34:27.201Z,13.90
2018-09-03T05:36:54.331Z,14.00
2018-09-03T05:39:21.593Z,14.00
2018-09-03T05:41:48.709Z,14.00
2018-09-03T05:44:15.831Z,14.00
2018-09-03T05:46:43.659Z,14.10
2018-09-03T05:49:10.770Z,14.10
2018-09-03T05:51:37.911Z,14.10
2018-09-03T05:54:05.525Z,14.10
2018-09-03T05:56:32.642Z,14.10
2018-09-03T05:58:59.804Z,14.10
2018-09-03T06:01:27.079Z,14.10
2018-09-03T06:03:54.195Z,14.20
2018-09-03T06:06:21.330Z,14.20
2018-09-03T06:08:48.717Z,14.20
2018-09-03T06:11:15.984Z,14.20
2018-09-03T06:13:42.958Z,14.30
2018-09-03T06:16:10.355Z,14.40
2018-09-03T06:18:37.503Z,14.50
2018-09-03T06:21:04.945Z,14.60
2018-09-03T06:23:32.095Z,14.60
2018-09-03T06:25:59.209Z,14.60
2018-09-03T06:28:26.521Z,14.60
2018-09-03T06:30:53.694Z,14.60
2018-09-03T06:33:20.898Z,14.60
2018-09-03T06:35:48.309Z,14.50
2018-09-03T06:38:15.438Z,14.50
2018-09-03T06:40:42.570Z,14.50
2018-09-03T06:43:09.794Z,14.50
2018-09-03T06:45:36.899Z,14.50
2018-09-03T06:48:04.082Z,14.50
2018-09-03T06:50:31.524Z,14.50
2018-09-03T06:52:58.638Z,14.60
2018-09-03T06:55:25.750Z,14.60
2018-09-03T06:57:52.932Z,14.80
2018-09-03T07:00:20.095Z,14.80
2018-09-03T07:02:47.246Z,14.90
2018-09-03T07:05:14.374Z,15.00
2018-09-03T07:07:41.827Z,15.00
2018-09-03T07:10:09.999Z,15.00
2018-09-03T07:12:37.830Z,15.00
2018-09-03T07:15:05.367Z,15.00
2018-09-03T07:17:32.701Z,14.90
2018-09-03T07:20:00.035Z,14.90
2018-09-03T07:22:27.137Z,14.80
2018-09-03T07:24:54.651Z,14.80
2018-09-03T07:27:21.862Z,14.80
2018-09-03T07:29:49.011Z,15.00
2018-09-03T07:32:16.811Z,15.10
2018-09-03T07:34:43.992Z,14.90
2018-09-03T07:37:11.102Z,14.90
2018-09-03T07:39:38.295Z,14.80
2018-09-03T07:42:05.447Z,14.80
2018-09-03T07:44:32.582Z,14.90
2018-09-03T07:47:00.137Z,14.80
2018-09-03T07:49:27.254Z,14.90
2018-09-03T07:51:54.398Z,15.00
2018-09-03T07:54:21.810Z,14.90
2018-09-03T07:56:48.922Z,14.90
2018-09-03T07:59:16.050Z,15.00
2018-09-03T08:01:43.542Z,15.00
2018-09-03T08:04:10.679Z,15.00
2018-09-03T08:06:37.790Z,15.00
2018-09-03T08:09:07.229Z,15.00
2018-09-03T08:11:34.378Z,15.00
2018-09-03T08:14:01.515Z,15.00
2018-09-03T08:16:28.943Z,15.00
2018-09-03T08:18:56.109Z,15.00
2018-09-03T08:21:23.235Z,14.90
2018-09-03T08:23:50.651Z,15.00
2018-09-03T08:26:17.795Z,15.00
2018-09-03T08:28:44.913Z,14.80
2018-09-03T08:31:12.490Z,14.80
2018-09-03T08:33:39.654Z,14.70
2018-09-03T08:36:06.812Z,14.60
2018-09-03T08:38:34.279Z,14.60
2018-09-03T08:41:01.412Z,14.70
2018-09-03T08:43:28.643Z,14.70
2018-09-03T08:45:56.127Z,14.80
2018-09-03T08:48:23.242Z,14.70
2018-09-03T08:50:50.471Z,14.80
2018-09-03T08:53:17.822Z,14.80
2018-09-03T08:55:44.962Z,14.90
2018-09-03T08:58:12.370Z,14.90
2018-09-03T09:00:39.511Z,14.90
2018-09-03T09:03:11.259Z,14.90
2018-09-03T09:05:38.378Z,14.90
2018-09-03T09:08:05.639Z,14.90
2018-09-03T09:10:32.797Z,15.00
2018-09-03T09:12:59.906Z,15.00
2018-09-03T09:15:27.403Z,15.20
2018-09-03T09:17:54.516Z,15.30
2018-09-03T09:20:21.629Z,15.30
2018-09-03T09:22:49.167Z,15.40
2018-09-03T09:25:16.314Z,15.60
2018-09-03T09:27:43.413Z,15.70
2018-09-03T09:30:10.930Z,15.90
2018-09-03T09:32:38.062Z,16.10
2018-09-03T09:35:05.204Z,16.20
2018-09-03T09:37:32.690Z,16.40
2018-09-03T09:39:59.801Z,16.40
2018-09-03T09:42:26.930Z,16.30
2018-09-03T09:44:54.599Z,16.20
2018-09-03T09:47:21.714Z,16.10
2018-09-03T09:49:48.866Z,16.00
2018-09-03T09:52:16.166Z,15.90
2018-09-03T09:54:43.326Z,15.80
2018-09-03T09:57:10.490Z,15.60
2018-09-03T09:59:37.882Z,15.50
2018-09-03T10:02:05.059Z,15.50
2018-09-03T10:04:32.523Z,15.50
2018-09-03T10:06:59.698Z,15.60
2018-09-03T10:09:26.810Z,15.70
2018-09-03T10:11:54.379Z,15.70
2018-09-03T10:14:21.511Z,15.70
2018-09-03T10:16:48.634Z,15.70
2018-09-03T10:19:16.118Z,15.70
2018-09-03T10:21:43.249Z,15.80
2018-09-03T10:24:10.366Z,15.90
2018-09-03T10:26:37.882Z,16.10
2018-09-03T10:29:05.039Z,16.40
2018-09-03T10:31:32.151Z,16.80
2018-09-03T10:33:59.794Z,17.00
2018-09-03T10:36:26.927Z,17.10
2018-09-03T10:38:54.051Z,17.30
2018-09-03T10:41:21.269Z,17.60
2018-09-03T10:43:48.397Z,17.50
2018-09-03T10:46:15.530Z,17.40
2018-09-03T10:48:43.027Z,17.60
2018-09-03T10:51:10.126Z,17.70
2018-09-03T10:53:37.493Z,17.90
2018-09-03T10:56:05.284Z,18.00
2018-09-03T10:58:32.369Z,17.80
2018-09-03T11:00:59.650Z,17.70
2018-09-03T11:03:26.828Z,17.40
2018-09-03T11:05:53.938Z,17.20
2018-09-03T11:08:21.470Z,17.20
2018-09-03T11:10:48.591Z,17.10
2018-09-03T11:13:15.711Z,17.00
2018-09-03T11:15:43.186Z,17.00
2018-09-03T11:18:10.303Z,17.10
2018-09-03T11:20:37.418Z,17.10
2018-09-03T11:23:05.011Z,17.20
2018-09-03T11:25:33.001Z,17.30
2018-09-03T11:28:00.775Z,17.40
2018-09-03T11:30:28.279Z,17.40
2018-09-03T11:33:02.714Z,17.50
2018-09-03T11:35:30.003Z,17.50
2018-09-03T11:37:57.331Z,17.70
2018-09-03T11:40:24.987Z,17.80
2018-09-03T11:42:52.309Z,17.90
2018-09-03T11:45:20.938Z,17.70
2018-09-03T11:47:48.399Z,17.80
2018-09-03T11:50:16.347Z,17.70
2018-09-03T11:52:44.034Z,17.80
2018-09-03T11:55:11.578Z,17.90
2018-09-03T11:57:38.686Z,18.00
2018-09-03T12:00:08.825Z,18.30
2018-09-03T12:02:36.619Z,18.10
2018-09-03T12:05:04.235Z,18.10
2018-09-03T12:07:31.387Z,18.40
2018-09-03T12:09:59.031Z,18.60
2018-09-03T12:12:26.130Z,18.40
2018-09-03T12:14:55.671Z,18.30
2018-09-03T12:17:22.967Z,18.00
2018-09-03T12:19:50.452Z,17.70
2018-09-03T12:22:17.576Z,17.50
2018-09-03T12:24:44.895Z,17.30
2018-09-03T12:27:12.015Z,17.20
2018-09-03T12:29:39.125Z,17.40
2018-09-03T12:32:06.274Z,17.80
2018-09-03T12:34:33.373Z,18.30
2018-09-03T12:37:00.587Z,18.60
2018-09-03T12:39:27.670Z,18.80
2018-09-03T12:41:54.787Z,18.90
2018-09-03T12:44:21.908Z,19.10
2018-09-03T12:46:49.274Z,19.10
2018-09-03T12:49:16.343Z,19.20
2018-09-03T12:51:43.463Z,19.20
2018-09-03T12:54:10.842Z,19.50
2018-09-03T12:56:37.958Z,19.60
2018-09-03T12:59:05.189Z,19.70
2018-09-03T13:01:32.540Z,19.80
2018-09-03T13:03:59.735Z,19.70
2018-09-03T13:06:26.903Z,19.90
2018-09-03T13:08:54.050Z,20.20
2018-09-03T13:11:21.165Z,20.40
2018-09-03T13:13:48.259Z,20.30
2018-09-03T13:16:15.363Z,20.40
2018-09-03T13:18:42.466Z,20.50
2018-09-03T13:21:09.815Z,20.20
2018-09-03T13:23:36.935Z,19.90
2018-09-03T13:26:04.322Z,20.10
2018-09-03T13:28:31.710Z,20.20
2018-09-03T13:30:58.810Z,20.40
2018-09-03T13:33:25.918Z,21.20
2018-09-03T13:35:53.266Z,21.90
2018-09-03T13:38:20.379Z,22.70
2018-09-03T13:40:47.720Z,23.00
2018-09-03T13:43:14.894Z,22.90
2018-09-03T13:45:42.054Z,22.30
2018-09-03T13:48:09.494Z,22.30
2018-09-03T13:50:36.582Z,22.60
2018-09-03T13:53:03.735Z,23.10
2018-09-03T13:55:30.842Z,22.90
2018-09-03T13:57:57.946Z,22.90
2018-09-03T14:00:25.066Z,22.60
2018-09-03T14:02:52.487Z,22.10
2018-09-03T14:05:19.598Z,22.20
2018-09-03T14:07:46.694Z,21.90
2018-09-03T14:10:14.249Z,22.50
2018-09-03T14:12:41.506Z,23.10
2018-09-03T14:15:08.658Z,23.80
2018-09-03T14:17:36.006Z,24.20
2018-09-03T14:20:03.310Z,24.90
2018-09-03T14:22:30.346Z,24.40
2018-09-03T14:24:57.716Z,23.70
2018-09-03T14:27:24.860Z,23.10
2018-09-03T14:29:52.167Z,22.20
2018-09-03T14:32:19.426Z,21.60
2018-09-03T14:34:46.554Z,21.40
2018-09-03T14:37:13.657Z,21.40
2018-09-03T14:39:40.770Z,21.40
2018-09-03T14:42:07.902Z,21.40
2018-09-03T14:44:35.097Z,21.50
2018-09-03T14:47:02.206Z,21.80
2018-09-03T14:49:29.363Z,22.30
2018-09-03T14:51:56.613Z,22.60
2018-09-03T14:54:23.719Z,22.20
2018-09-03T14:56:50.895Z,21.80
2018-09-03T14:59:18.234Z,21.80
2018-09-03T15:01:45.337Z,21.70
2018-09-03T15:04:12.790Z,21.90
2018-09-03T15:06:39.858Z,22.10
2018-09-03T15:09:08.003Z,21.90
2018-09-03T15:11:35.130Z,21.80
2018-09-03T15:14:02.410Z,21.40
2018-09-03T15:16:31.194Z,20.90
2018-09-03T15:18:59.167Z,20.70
2018-09-03T15:21:26.782Z,20.60
2018-09-03T15:23:53.888Z,20.50
2018-09-03T15:26:21.111Z,20.50
2018-09-03T15:28:48.821Z,20.70
2018-09-03T15:31:16.007Z,21.10
2018-09-03T15:33:43.127Z,21.40
2018-09-03T15:36:10.889Z,21.70
2018-09-03T15:38:38.236Z,21.70
2018-09-03T15:41:05.350Z,21.20
2018-09-03T15:43:32.978Z,20.70
2018-09-03T15:46:00.094Z,20.50
2018-09-03T15:48:27.206Z,20.20
2018-09-03T15:50:54.826Z,19.80
2018-09-03T15:53:22.479Z,19.80
2018-09-03T15:55:49.587Z,19.70
2018-09-03T15:58:17.054Z,19.60
2018-09-03T16:00:44.199Z,19.60
2018-09-03T16:03:11.302Z,19.80
2018-09-03T16:05:38.667Z,20.00
2018-09-03T16:08:05.779Z,20.00
2018-09-03T16:10:33.039Z,20.10
2018-09-03T16:13:00.497Z,20.10
2018-09-03T16:15:27.599Z,20.20
2018-09-03T16:17:54.954Z,20.40
2018-09-03T16:20:22.227Z,20.50
2018-09-03T16:22:49.338Z,20.50
2018-09-03T16:25:16.622Z,20.40
2018-09-03T16:27:43.752Z,20.10
2018-09-03T16:30:10.870Z,20.00
2018-09-03T16:32:38.298Z,19.90
2018-09-03T16:35:05.430Z,19.90
2018-09-03T16:37:32.581Z,19.80
2018-09-03T16:40:00.231Z,19.70
2018-09-03T16:42:27.347Z,19.70
2018-09-03T16:44:54.778Z,19.60
2018-09-03T16:47:22.415Z,19.50
2018-09-03T16:49:49.571Z,19.30
2018-09-03T16:52:16.694Z,19.10
2018-09-03T16:54:44.506Z,19.00
2018-09-03T16:57:11.643Z,18.80
2018-09-03T16:59:38.749Z,18.70
2018-09-03T17:02:06.171Z,18.60
2018-09-03T17:04:33.331Z,18.50
2018-09-03T17:07:00.474Z,18.30
2018-09-03T17:09:27.746Z,18.20
2018-09-03T17:11:54.875Z,18.00
2018-09-03T17:14:22.123Z,17.90
2018-09-03T17:16:49.315Z,17.70
2018-09-03T17:19:16.431Z,17.50
2018-09-03T17:21:43.921Z,17.40
2018-09-03T17:24:11.043Z,17.30
2018-09-03T17:26:38.551Z,17.20
2018-09-03T17:29:05.886Z,17.10
2018-09-03T17:31:33.018Z,17.00
2018-09-03T17:34:00.143Z,16.90
2018-09-03T17:36:27.590Z,16.90
2018-09-03T17:38:54.694Z,16.90
2018-09-03T17:41:21.810Z,16.90
2018-09-03T17:43:49.549Z,16.90
2018-09-03T17:46:16.674Z,16.90
2018-09-03T17:48:43.931Z,16.90
2018-09-03T17:51:11.590Z,16.90
2018-09-03T17:53:38.709Z,16.90
2018-09-03T17:56:05.832Z,16.90
2018-09-03T17:58:33.454Z,16.90
2018-09-03T18:01:00.737Z,16.90
2018-09-03T18:03:27.875Z,16.90
2018-09-03T18:05:55.282Z,16.90
2018-09-03T18:08:22.459Z,16.80
2018-09-03T18:10:49.520Z,16.80
2018-09-03T18:13:16.966Z,16.80
2018-09-03T18:15:44.066Z,16.80
2018-09-03T18:18:11.166Z,16.80
2018-09-03T18:20:38.618Z,16.80
2018-09-03T18:23:06.049Z,16.80
2018-09-03T18:25:33.246Z,16.80
2018-09-03T18:28:00.582Z,16.80
2018-09-03T18:30:27.743Z,16.80
2018-09-03T18:32:55.061Z,16.70
2018-09-03T18:35:22.182Z,16.70
2018-09-03T18:37:49.283Z,16.70
2018-09-03T18:40:16.699Z,16.60
2018-09-03T18:42:43.822Z,16.50
2018-09-03T18:45:10.923Z,16.50
2018-09-03T18:47:38.338Z,16.50
2018-09-03T18:50:07.559Z,16.40
2018-09-03T18:52:34.719Z,16.30
2018-09-03T18:55:01.989Z,16.30
2018-09-03T18:57:29.351Z,16.20
2018-09-03T18:59:56.559Z,16.20
2018-09-03T19:02:24.247Z,16.10
2018-09-03T19:04:51.525Z,16.10
2018-09-03T19:07:18.642Z,16.10
2018-09-03T19:09:45.997Z,16.10
2018-09-03T19:12:13.155Z,16.00
2018-09-03T19:14:40.371Z,16.00
2018-09-03T19:17:07.698Z,15.90
2018-09-03T19:19:34.826Z,15.80
2018-09-03T19:22:01.982Z,15.80
2018-09-03T19:24:29.678Z,15.70
2018-09-03T19:26:56.830Z,15.70
2018-09-03T19:29:24.010Z,15.60
2018-09-03T19:31:51.611Z,15.50
2018-09-03T19:34:18.730Z,15.50
2018-09-03T19:36:45.909Z,15.50
2018-09-03T19:39:13.261Z,15.50
2018-09-03T19:41:40.381Z,15.50
2018-09-03T19:44:07.474Z,15.50
2018-09-03T19:46:35.063Z,15.50
2018-09-03T19:49:02.175Z,15.50
2018-09-03T19:51:29.330Z,15.50
2018-09-03T19:53:56.667Z,15.50
2018-09-03T19:56:23.790Z,15.50
2018-09-03T19:58:51.030Z,15.60
2018-09-03T20:01:18.225Z,15.60
2018-09-03T20:03:45.447Z,15.70
2018-09-03T20:06:12.882Z,15.60
2018-09-03T20:08:40.006Z,15.60
2018-09-03T20:11:07.115Z,15.60
2018-09-03T20:13:34.590Z,15.60
2018-09-03T20:16:01.704Z,15.60
2018-09-03T20:18:28.814Z,15.60
2018-09-03T20:20:56.249Z,15.60
2018-09-03T20:23:23.434Z,15.60
2018-09-03T20:25:50.532Z,15.50
2018-09-03T20:28:17.832Z,15.50
2018-09-03T20:30:45.048Z,15.50
2018-09-03T20:33:12.055Z,15.50
2018-09-03T20:35:39.551Z,15.50
2018-09-03T20:38:06.672Z,15.50
2018-09-03T20:40:33.814Z,15.50
2018-09-03T20:43:01.075Z,15.50
2018-09-03T20:45:28.235Z,15.50
2018-09-03T20:47:55.583Z,15.50
2018-09-03T20:50:22.710Z,15.50
2018-09-03T20:52:49.811Z,15.50
2018-09-03T20:55:17.221Z,15.50
2018-09-03T20:57:44.329Z,15.50
2018-09-03T21:00:11.451Z,15.40
2018-09-03T21:02:38.972Z,15.50
2018-09-03T21:05:06.284Z,15.50
2018-09-03T21:07:33.398Z,15.50
2018-09-03T21:10:00.902Z,15.50
2018-09-03T21:12:28.878Z,15.50
2018-09-03T21:14:55.990Z,15.50
2018-09-03T21:17:23.461Z,15.50
2018-09-03T21:19:50.578Z,15.50
2018-09-03T21:22:17.702Z,15.50
2018-09-03T21:24:45.158Z,15.50
2018-09-03T21:27:12.262Z,15.30
2018-09-03T21:29:39.372Z,15.30
2018-09-03T21:32:06.858Z,15.20
2018-09-03T21:34:33.971Z,15.10
2018-09-03T21:37:01.069Z,14.90
2018-09-03T21:39:28.252Z,14.80
2018-09-03T21:41:55.388Z,14.70
2018-09-03T21:44:22.771Z,14.70
2018-09-03T21:46:50.073Z,14.50
2018-09-03T21:49:17.225Z,14.40
2018-09-03T21:51:44.683Z,14.40
2018-09-03T21:54:11.802Z,14.40
2018-09-03T21:56:38.903Z,14.30
2018-09-03T21:59:06.298Z,14.30
2018-09-03T22:01:33.453Z,14.20
2018-09-03T22:04:00.655Z,14.10
2018-09-03T22:06:30.079Z,14.00
2018-09-03T22:08:57.362Z,14.00
2018-09-03T22:11:24.467Z,14.00
2018-09-03T22:13:51.602Z,13.90
2018-09-03T22:16:18.830Z,13.80
2018-09-03T22:18:45.929Z,13.90
2018-09-03T22:21:13.181Z,13.90
2018-09-03T22:23:40.282Z,13.80
2018-09-03T22:26:07.414Z,13.80
2018-09-03T22:28:35.116Z,13.80
2018-09-03T22:31:02.374Z,13.70
2018-09-03T22:33:29.474Z,13.70
2018-09-03T22:35:56.879Z,13.70
2018-09-03T22:38:24.123Z,13.70
2018-09-03T22:40:51.243Z,13.70
2018-09-03T22:43:18.873Z,13.70
2018-09-03T22:45:45.989Z,13.70
2018-09-03T22:48:13.091Z,13.70
2018-09-03T22:50:40.594Z,13.70
2018-09-03T22:53:07.846Z,13.70
2018-09-03T22:55:34.950Z,13.70
2018-09-03T22:58:02.374Z,13.80
2018-09-03T23:00:29.529Z,13.80
2018-09-03T23:02:56.650Z,13.80
2018-09-03T23:05:24.038Z,13.80
2018-09-03T23:07:51.174Z,13.80
2018-09-03T23:10:18.510Z,13.80
2018-09-03T23:12:45.654Z,13.80
2018-09-03T23:15:12.771Z,13.70
2018-09-03T23:17:40.195Z,13.70
2018-09-03T23:20:07.333Z,13.70
2018-09-03T23:22:34.665Z,13.70
2018-09-03T23:25:02.119Z,13.60
2018-09-03T23:27:29.218Z,13.60
2018-09-03T23:29:56.318Z,13.60
2018-09-03T23:32:23.780Z,13.50
2018-09-03T23:34:50.887Z,13.50
2018-09-03T23:37:18.006Z,13.50
2018-09-03T23:39:45.850Z,13.50
2018-09-03T23:42:12.959Z,13.50
2018-09-03T23:44:40.082Z,13.40
2018-09-03T23:47:07.606Z,13.40
2018-09-03T23:49:34.706Z,13.50
2018-09-03T23:52:01.863Z,13.40
2018-09-03T23:54:29.566Z,13.40
2018-09-03T23:56:56.703Z,13.40
2018-09-03T23:59:23.814Z,13.40
